Skip Navigation Links
NOAA logo - Click to go to the NOAA homepage
NOAA's National Weather Service
Alaska Aviation Weather Unit
  NWS logo - Click to go to the NWS homepage
Left Navbar Graphic     03 AKDT = 11 GMT

   
NOAA is celebrating 200 years of science, service, and stewardship. Visit the NOAA 200th celebration Web site to learn more.
USA.gov is the U.S. Government's official Web portal to all Federal, state and local government Web resources and services.
Facebook
NWS on Facebook

AAWU Home :: Display TAF Add Bookmark
TAF PAEN 290946Z 2910/3006 VRB02KT P6SM VCFG SCT005 OVC025
      TEMPO 2910/2914 1SM BR BKN005
     FM291800 19008KT P6SM SCT025 BKN050=

PAEN 290524Z AUTO 00000KT 4SM BR BKN020 OVC110 M06/M06 A2952= SPECI PAEN 290534Z AUTO 00000KT 1 3/4SM BR BKN019 OVC100 M06/M06 A2952 RMK AO2 VIS 1V5 I1000 T10611061 TSNO= METAR PAEN 290553Z AUTO 00000KT 3SM BR BKN019 OVC100 M06/M06 A2953= SPECI PAEN 290600Z AUTO 00000KT 7SM SCT019 OVC100 M04/M06 A2953 RMK AO2 T10441056 TSNO= SPECI PAEN 290630Z AUTO 00000KT 1 3/4SM BR FEW095 M07/M07 A2953 RMK AO2 I1000 T10671072 TSNO= PAEN 290639Z AUTO 00000KT 1/2SM FZFG FEW095 M07/M08 A2953= METAR PAEN 290653Z AUTO 00000KT 3/4SM BR VV002 M08/M08 A2953= PAEN 290715Z AUTO 00000KT 1/2SM FZFG VV001 M08/M08 A2953= SPECI PAEN 290722Z AUTO 00000KT 1/4SM FZFG VV001 M09/M09 A2953 RMK AO2 T10891094 TSNO= SPECI PAEN 290736Z AUTO 00000KT 1/2SM FZFG VV001 M08/M09 A2954 RMK AO2 T10831094 TSNO= METAR PAEN 290753Z AUTO 00000KT 1/4SM FZFG BKN001 OVC029 M10/M11 A2954= PAEN 290805Z AUTO 00000KT 1/4SM FZFG SCT001 OVC029 M09/M10 A2954= PAEN 290832Z AUTO 00000KT 3/4SM BR OVC028 M08/M08 A2954= PAEN 290840Z AUTO 00000KT 2SM BR OVC028 M08/M08 A2954 RMK AO2 T10831083 TSNO= METAR PAEN 290853Z AUTO 00000KT 1 3/4SM BR OVC028 M08/M08 A2954= PAEN 290858Z AUTO 00000KT 3SM BR OVC028 M07/M08 A2954 RMK AO2 T10721083 TSNO= PAEN 290937Z AUTO 20003KT 7SM FEW007 OVC029 M07/M07 A2954= METAR PAEN 290953Z AUTO 00000KT 9SM FEW007 OVC029 M07/M08 A2954= METAR PAEN 291053Z AUTO 00000KT 8SM OVC029 M07/M08 A2954 RMK AO2 SLP005 T10671078 TSNO=
 Alaska TAF Map

NOAA's National Weather Service
Alaska Aviation Weather Unit
6930 Sand Lake Road
Anchorage, AK 99502-1845
Disclaimer
Credits
Glossary
Privacy Policy
About Us
Career Opportunities
Contact AAWU Internet Services Site last modified: April, 17th 2012